createdAt,value
2018-07-27T05:05:58.828Z,7.80
2018-07-27T05:11:02.933Z,7.37
2018-07-27T05:16:10.146Z,5.87
2018-07-27T05:21:14.422Z,5.57
2018-07-27T05:26:28.079Z,4.73
2018-07-27T05:31:32.055Z,5.23
2018-07-27T05:36:40.865Z,5.57
2018-07-27T05:41:44.575Z,4.27
2018-07-27T05:46:48.036Z,5.53
2018-07-27T05:51:51.510Z,5.83
2018-07-27T05:56:54.873Z,4.90
2018-07-27T06:01:58.211Z,5.00
2018-07-27T06:07:01.554Z,4.23
2018-07-27T06:12:04.882Z,6.00
2018-07-27T06:17:08.262Z,5.43
2018-07-27T06:22:11.990Z,6.87
2018-07-27T06:27:15.349Z,5.53
2018-07-27T06:32:19.034Z,5.93
2018-07-27T06:37:22.760Z,6.03
2018-07-27T06:42:26.678Z,5.67
2018-07-27T06:47:30.011Z,4.30
2018-07-27T06:52:33.405Z,5.03
2018-07-27T06:57:36.735Z,4.97
2018-07-27T07:02:40.834Z,5.13
2018-07-27T07:07:44.202Z,4.10
2018-07-27T07:12:47.557Z,6.43
2018-07-27T07:17:50.902Z,6.07
2018-07-27T07:22:54.339Z,6.33
2018-07-27T07:27:57.691Z,8.53
2018-07-27T07:33:01.070Z,5.17
2018-07-27T07:38:04.406Z,8.97
2018-07-27T07:43:07.743Z,8.53
2018-07-27T07:48:11.079Z,9.70
2018-07-27T07:53:14.582Z,7.53
2018-07-27T07:58:17.915Z,11.67
2018-07-27T08:03:21.245Z,10.27
2018-07-27T08:08:24.570Z,9.23
2018-07-27T08:13:28.674Z,6.83
2018-07-27T08:18:32.006Z,6.93
2018-07-27T08:23:36.112Z,4.50
2018-07-27T08:28:42.259Z,6.33
2018-07-27T08:33:45.598Z,4.03
2018-07-27T08:38:48.935Z,4.40
2018-07-27T08:43:53.045Z,5.13
2018-07-27T08:48:56.406Z,4.37
2018-07-27T08:54:00.506Z,4.83
2018-07-27T08:59:03.839Z,5.30
2018-07-27T09:04:07.943Z,4.80
2018-07-27T09:09:11.531Z,3.87
2018-07-27T09:14:14.870Z,5.83
2018-07-27T09:19:18.194Z,4.07
2018-07-27T09:24:21.739Z,5.60
2018-07-27T09:29:24.887Z,3.20
2018-07-27T09:34:28.930Z,4.30
2018-07-27T09:39:32.302Z,3.60
2018-07-27T09:44:35.675Z,3.87
2018-07-27T09:49:39.202Z,6.10
2018-07-27T09:54:43.299Z,3.90
2018-07-27T09:59:46.632Z,4.40
2018-07-27T10:04:50.086Z,3.00
2018-07-27T10:09:53.535Z,2.87
2018-07-27T10:14:56.888Z,2.70
2018-07-27T10:20:00.460Z,11.53
2018-07-27T10:25:04.145Z,5.30
2018-07-27T10:30:07.583Z,6.07
2018-07-27T10:35:10.928Z,5.50
2018-07-27T10:40:14.289Z,5.23
2018-07-27T10:45:17.653Z,7.20
2018-07-27T10:50:21.073Z,3.63
2018-07-27T10:55:24.371Z,3.30
2018-07-27T11:00:27.731Z,3.50
2018-07-27T11:05:31.858Z,3.40
2018-07-27T11:10:35.982Z,4.97
2018-07-27T11:15:39.328Z,4.03
2018-07-27T11:20:42.769Z,3.00
2018-07-27T11:25:46.104Z,3.40
2018-07-27T11:30:49.449Z,3.13
2018-07-27T11:35:53.090Z,3.07
2018-07-27T11:40:56.418Z,4.23
2018-07-27T11:45:59.773Z,3.40
2018-07-27T11:51:03.111Z,4.57
2018-07-27T11:56:06.462Z,4.93
2018-07-27T12:01:09.811Z,3.30
2018-07-27T12:06:13.157Z,3.10
2018-07-27T12:11:16.502Z,2.70
2018-07-27T12:16:19.939Z,2.30
2018-07-27T12:21:23.402Z,10.63
2018-07-27T12:26:26.628Z,7.10
2018-07-27T12:31:29.962Z,3.78
2018-07-27T12:36:33.313Z,3.10
2018-07-27T12:41:37.707Z,2.42
2018-07-27T12:46:41.051Z,5.18
2018-07-27T12:51:44.496Z,5.25
2018-07-27T12:56:47.950Z,3.40
2018-07-27T13:01:51.489Z,2.83
2018-07-27T13:06:54.845Z,2.65
2018-07-27T13:11:58.391Z,2.03
2018-07-27T13:17:01.738Z,2.30
2018-07-27T13:22:05.162Z,2.70
2018-07-27T13:27:08.572Z,2.42
2018-07-27T13:32:12.008Z,2.37
2018-07-27T13:37:15.345Z,2.30
2018-07-27T13:42:18.687Z,2.78
2018-07-27T13:47:26.433Z,4.35
2018-07-27T13:52:29.842Z,2.65
2018-07-27T13:57:33.200Z,2.60
2018-07-27T14:02:36.541Z,3.70
2018-07-27T14:07:39.958Z,9.05
2018-07-27T14:12:43.988Z,6.97
2018-07-27T14:17:47.321Z,2.67
2018-07-27T14:22:50.664Z,2.90
2018-07-27T14:27:53.990Z,3.95
2018-07-27T14:32:57.335Z,2.35
2018-07-27T14:38:00.662Z,2.55
2018-07-27T14:43:04.012Z,1.95
2018-07-27T14:48:07.347Z,2.58
2018-07-27T14:53:10.682Z,2.35
2018-07-27T14:58:14.023Z,2.78
2018-07-27T15:03:17.400Z,4.53
2018-07-27T15:08:21.517Z,2.33
2018-07-27T15:13:24.858Z,3.20
2018-07-27T15:18:33.077Z,2.70
2018-07-27T15:23:37.254Z,3.20
2018-07-27T15:28:41.355Z,3.60
2018-07-27T15:33:45.007Z,2.65
2018-07-27T15:38:49.268Z,2.62
2018-07-27T15:43:52.798Z,2.33
2018-07-27T15:48:56.206Z,2.75
2018-07-27T15:53:59.547Z,3.83
2018-07-27T15:59:02.990Z,2.35
2018-07-27T16:04:07.234Z,3.35
2018-07-27T16:09:10.909Z,4.18
2018-07-27T16:14:14.380Z,2.22
2018-07-27T16:19:17.754Z,2.05
2018-07-27T16:24:21.094Z,2.28
2018-07-27T16:29:25.197Z,3.10
2018-07-27T16:34:28.546Z,3.92
2018-07-27T16:39:32.665Z,2.30
2018-07-27T16:44:36.770Z,2.40
2018-07-27T16:49:40.103Z,2.55
2018-07-27T16:54:44.210Z,4.05
2018-07-27T16:59:47.603Z,2.25
2018-07-27T17:04:50.911Z,3.25
2018-07-27T17:09:54.247Z,4.22
2018-07-27T17:14:57.586Z,2.90
2018-07-27T17:20:01.689Z,2.40
2018-07-27T17:25:05.056Z,2.80
2018-07-27T17:30:08.411Z,2.30
2018-07-27T17:35:11.787Z,2.28
2018-07-27T17:40:15.132Z,2.45
2018-07-27T17:45:18.467Z,3.55
2018-07-27T17:50:21.798Z,2.03
2018-07-27T17:55:26.926Z,2.20
2018-07-27T18:00:30.259Z,2.42
2018-07-27T18:05:40.112Z,2.10
2018-07-27T18:10:43.449Z,2.25
2018-07-27T18:15:47.547Z,2.60
2018-07-27T18:20:51.673Z,3.12
2018-07-27T18:26:08.526Z,2.58
2018-07-27T18:31:11.860Z,3.30
2018-07-27T18:36:22.381Z,2.60
2018-07-27T18:41:25.714Z,3.55
2018-07-27T18:46:35.168Z,2.95
2018-07-27T18:51:44.894Z,3.33
2018-07-27T18:56:48.223Z,3.75
2018-07-27T19:01:51.562Z,3.92
2018-07-27T19:06:54.922Z,3.55
2018-07-27T19:11:58.267Z,5.32
2018-07-27T19:17:01.632Z,3.50
2018-07-27T19:22:05.028Z,4.73
2018-07-27T19:27:09.123Z,3.67
2018-07-27T19:32:12.639Z,4.10
2018-07-27T19:37:16.279Z,8.10
2018-07-27T19:42:20.416Z,4.93
2018-07-27T19:47:23.778Z,4.30
2018-07-27T19:52:27.307Z,4.37
2018-07-27T19:57:30.637Z,4.68
2018-07-27T20:02:33.980Z,4.57
2018-07-27T20:07:38.079Z,5.15
2018-07-27T20:12:41.445Z,5.70
2018-07-27T20:17:45.617Z,7.50
2018-07-27T20:22:49.130Z,4.75
2018-07-27T20:27:55.383Z,5.05
2018-07-27T20:33:01.697Z,6.03
2018-07-27T20:38:07.369Z,5.37
2018-07-27T20:43:12.174Z,8.00
2018-07-27T20:48:20.649Z,8.00
2018-07-27T20:53:26.475Z,7.20
2018-07-27T20:58:30.202Z,6.68
2018-07-27T21:03:36.995Z,8.18
2018-07-27T21:08:40.362Z,6.85
2018-07-27T21:13:43.728Z,6.72
